Terminal Aerodrome Forecast
Issued by NWS

Home | Current Version | Previous Version | Text Only | Print | Product List | Glossary On
Versions: 1 2 3 4 5 6 7 8 9 10 11 12 13 14 15 16 17 18 19 20 21
359
FTUS43 KDLH 280313 AAA
TAFHIB
TAF AMD
KHIB 280313Z 2803/2824 08005KT P6SM SCT070
      TEMPO 2803/2807 1/2SM FG SCT005
     FM280700 00000KT 2SM BR SCT005
      TEMPO 2807/2811 1/2SM FG BKN002
     FM281400 08005KT P6SM SCT050=

USA.gov is the U.S. government's official web portal to all federal, state and local government web resources and services.